Time;durP1;ratioP1;P1;durP2;ratioP2;P2;SDS_P1;SDS_P2;PMS_P1;PMS_P2;Temp;Humidity;BMP_temperature;BMP_pressure;BME280_temperature;BME280_humidity;BME280_pressure;Samples;Min_cycle;Max_cycle;Signal;HPM_P1;HPM_P2
2022/12/11 00:01:18;;;;;;;33.80;28.13;;;;;;;0.21;100.00;101211.81;5142756;28;20081;-68
2022/12/11 00:03:48;;;;;;;33.92;30.15;;;;;;;0.09;100.00;101201.78;5141852;28;20546;-68
2022/12/11 00:06:20;;;;;;;30.25;27.23;;;;;;;0.19;100.00;101219.13;5142383;28;20617;-68
2022/12/11 00:08:53;;;;;;;31.35;27.98;;;;;;;0.20;100.00;101220.78;5142397;28;20019;-69
2022/12/11 00:11:23;;;;;;;27.38;24.73;;;;;;;0.16;100.00;101214.16;5142320;28;20025;-68
2022/12/11 00:13:54;;;;;;;27.63;24.75;;;;;;;0.14;100.00;101215.34;5141810;28;20322;-68
2022/12/11 00:16:24;;;;;;;30.42;27.30;;;;;;;0.03;100.00;101199.84;5124781;28;20395;-68
2022/12/11 00:18:54;;;;;;;27.70;24.92;;;;;;;0.09;100.00;101204.44;5142006;28;20395;-68
2022/12/11 00:21:25;;;;;;;30.95;23.50;;;;;;;0.03;100.00;101202.50;5142395;28;20019;-68
2022/12/11 00:23:55;;;;;;;26.58;23.83;;;;;;;-0.04;100.00;101187.31;5141723;28;20027;-68
2022/12/11 00:26:26;;;;;;;25.58;22.73;;;;;;;0.09;100.00;101204.44;5142349;28;20023;-68
2022/12/11 00:28:56;;;;;;;24.92;22.73;;;;;;;0.12;100.00;101206.75;5142279;28;20030;-68
2022/12/11 00:31:27;;;;;;;27.25;23.90;;;;;;;0.07;100.00;101207.28;5142248;28;20030;-68
2022/12/11 00:33:57;;;;;;;25.23;22.65;;;;;;;0.08;100.00;101210.75;5143555;28;20255;-68
2022/12/11 00:36:27;;;;;;;26.52;24.08;;;;;;;0.07;100.00;101211.75;5145947;28;20118;-68
2022/12/11 00:38:58;;;;;;;24.05;21.85;;;;;;;0.08;100.00;101218.72;5145793;28;20030;-68
2022/12/11 00:41:29;;;;;;;23.02;20.75;;;;;;;-0.02;100.00;101200.41;5145716;28;20556;-68
2022/12/11 00:43:59;;;;;;;27.23;24.30;;;;;;;0.07;100.00;101209.91;5145154;28;20031;-68
2022/12/11 00:46:29;;;;;;;27.67;24.85;;;;;;;0.05;100.00;101208.44;5145752;28;20022;-68
2022/12/11 00:49:00;;;;;;;23.08;20.88;;;;;;;0.06;100.00;101199.47;5145609;28;20541;-68
2022/12/11 00:51:30;;;;;;;25.27;22.58;;;;;;;0.08;100.00;101200.13;5145861;28;20026;-68
2022/12/11 00:54:01;;;;;;;26.70;23.90;;;;;;;0.05;100.00;101198.66;5145280;28;20506;-68
2022/12/11 00:56:32;;;;;;;24.25;22.00;;;;;;;0.03;100.00;101189.22;5128219;28;20026;-68
2022/12/11 00:59:02;;;;;;;26.30;23.77;;;;;;;0.05;100.00;101188.03;5145587;28;20034;-67
2022/12/11 01:01:33;;;;;;;25.48;23.05;;;;;;;0.05;100.00;101192.53;5145219;28;20023;-68
2022/12/11 01:04:04;;;;;;;25.40;22.85;;;;;;;0.06;100.00;101197.66;5144849;28;20491;-68
2022/12/11 01:06:34;;;;;;;25.25;22.58;;;;;;;0.05;100.00;101197.81;5145464;28;20031;-68
2022/12/11 01:11:54;;;;;;;28.30;25.30;;;;;;;0.07;100.00;101201.13;5145185;28;20043;-67
2022/12/11 01:14:25;;;;;;;26.88;24.48;;;;;;;-0.32;100.00;101138.44;5145608;28;20376;-68
2022/12/11 01:16:56;;;;;;;24.08;21.88;;;;;;;0.08;100.00;101197.47;5145223;28;20049;-67
2022/12/11 01:19:27;;;;;;;29.13;24.17;;;;;;;0.05;100.00;101201.31;5145578;28;20026;-69
2022/12/11 01:21:57;;;;;;;23.50;21.33;;;;;;;-0.07;100.00;101177.03;5144975;28;20030;-67
2022/12/11 01:24:28;;;;;;;25.25;22.92;;;;;;;0.00;100.00;101188.56;5145386;28;20516;-68
2022/12/11 01:26:58;;;;;;;23.42;21.42;;;;;;;0.00;100.00;101183.25;5145592;28;20031;-67
2022/12/11 01:29:29;;;;;;;24.67;22.13;;;;;;;0.04;100.00;101199.66;5145250;28;20490;-68
2022/12/11 01:31:59;;;;;;;21.23;18.00;;;;;;;-0.08;100.00;101180.69;5145044;28;20471;-68
2022/12/11 01:34:30;;;;;;;26.65;23.98;;;;;;;-0.02;100.00;101190.59;5145133;28;20034;-67
2022/12/11 01:37:01;;;;;;;23.52;20.63;;;;;;;-0.01;100.00;101186.13;5128074;28;20031;-67
2022/12/11 01:39:31;;;;;;;21.90;19.80;;;;;;;-0.07;100.00;101179.69;5145282;28;20030;-68
2022/12/11 01:42:02;;;;;;;28.20;25.45;;;;;;;0.04;100.00;101183.72;5152466;23;20054;-67
2022/12/11 01:44:32;;;;;;;21.63;19.67;;;;;;;0.04;100.00;101190.88;5129112;28;20023;-66
2022/12/11 01:47:03;;;;;;;20.75;19.10;;;;;;;-0.04;100.00;101182.00;5124930;28;20121;-66
2022/12/11 01:49:33;;;;;;;25.40;23.13;;;;;;;0.03;100.00;101191.88;5126186;28;20045;-67
2022/12/11 01:52:14;;;;;;;24.88;22.75;;;;;;;-0.19;100.00;101157.22;5125653;28;20030;-66
2022/12/11 01:54:45;;;;;;;23.15;20.90;;;;;;;-0.14;100.00;101169.97;5297934;23;20047;-81
2022/12/11 01:57:16;;;;;;;24.80;22.23;;;;;;;-0.24;100.00;101164.06;5155235;28;20041;-79
2022/12/11 01:59:46;;;;;;;25.90;23.38;;;;;;;-0.22;100.00;101157.56;5153771;28;20023;-81
2022/12/11 02:02:25;;;;;;;25.15;22.83;;;;;;;0.04;100.00;101196.19;5155636;28;20504;-80
2022/12/11 02:04:55;;;;;;;23.15;21.15;;;;;;;0.05;100.00;101197.81;5156801;28;20058;-81
2022/12/11 02:07:28;;;;;;;25.58;23.38;;;;;;;-0.05;100.00;101179.50;5157172;28;20027;-79
2022/12/11 02:09:59;;;;;;;21.08;19.15;;;;;;;0.05;100.00;101197.81;5162052;28;20062;-81
2022/12/11 02:12:29;;;;;;;21.40;19.20;;;;;;;0.04;100.00;101189.03;5155989;28;20023;-81
2022/12/11 02:15:28;;;;;;;22.92;20.92;;;;;;;0.05;100.00;101192.53;5154776;28;20031;-82
2022/12/11 02:18:19;;;;;;;26.48;23.83;;;;;;;0.05;100.00;101188.03;5155394;28;20023;-79
2022/12/11 02:21:07;;;;;;;23.90;21.35;;;;;;;0.04;100.00;101191.69;5153634;28;20408;-81
2022/12/11 02:23:46;;;;;;;24.48;22.02;;;;;;;-0.23;100.00;101150.59;5154305;28;20037;-83
2022/12/11 02:26:17;;;;;;;24.53;22.30;;;;;;;0.05;100.00;101190.69;5155045;28;20106;-78
2022/12/11 02:29:19;;;;;;;22.40;20.23;;;;;;;0.03;100.00;101192.69;5155067;28;20050;-78
2022/12/11 02:31:57;;;;;;;25.23;22.48;;;;;;;0.03;100.00;101181.25;5153660;28;20090;-80
2022/12/11 02:35:03;;;;;;;24.20;22.13;;;;;;;-0.05;100.00;101179.50;5154329;28;20370;-81
2022/12/11 02:37:36;;;;;;;25.30;21.83;;;;;;;0.04;100.00;101188.22;5154237;28;20030;-81
2022/12/11 02:40:11;;;;;;;23.75;21.60;;;;;;;-0.10;100.00;101174.72;5154580;28;20038;-81
2022/12/11 02:42:46;;;;;;;24.13;22.23;;;;;;;0.03;100.00;101183.91;5154597;28;20027;-81
2022/12/11 02:52:21;;;;;;;24.58;22.00;;;;;;;-0.07;100.00;101157.63;5153831;23;20047;-67
2022/12/11 02:54:54;;;;;;;24.77;22.27;;;;;;;0.04;100.00;101177.59;5145850;28;20105;-67
2022/12/11 02:57:50;;;;;;;29.40;24.45;;;;;;;0.04;100.00;101177.59;5145595;28;20446;-66
2022/12/11 03:00:20;;;;;;;27.73;23.10;;;;;;;0.07;100.00;101177.22;5154290;23;20129;-66
2022/12/11 03:02:51;;;;;;;24.50;22.10;;;;;;;0.02;100.00;101161.00;5144947;28;20044;-68
2022/12/11 03:05:21;;;;;;;23.50;21.20;;;;;;;0.07;100.00;101161.31;5163196;23;20059;-90
2022/12/11 03:07:52;;;;;;;26.80;22.98;;;;;;;-0.51;100.00;101067.28;5121556;29;20118;-91
2022/12/11 03:10:23;;;;;;;23.00;20.83;;;;;;;-0.36;100.00;101092.03;5120529;29;20609;-91
2022/12/11 03:12:57;;;;;;;24.42;21.95;;;;;;;0.05;100.00;101160.66;5120096;29;20102;-91
2022/12/11 03:15:54;;;;;;;26.80;23.63;;;;;;;0.03;100.00;101150.22;5120474;29;20095;-91
2022/12/11 03:18:48;;;;;;;24.92;22.48;;;;;;;0.03;100.00;101147.56;5137702;29;20031;-92
2022/12/11 03:21:24;;;;;;;20.23;17.95;;;;;;;-0.46;100.00;101070.22;5119925;29;20378;-92
2022/12/11 03:24:07;;;;;;;22.92;20.67;;;;;;;-0.36;100.00;101115.91;5119358;29;20031;-92
2022/12/11 03:26:42;;;;;;;23.40;21.23;;;;;;;0.03;100.00;101157.34;5136638;29;20095;-91
2022/12/11 03:29:19;;;;;;;20.58;18.65;;;;;;;-0.11;100.00;101124.47;5119672;29;20061;-91
2022/12/11 03:31:57;;;;;;;24.42;20.33;;;;;;;-0.05;100.00;101139.69;5135538;29;20042;-92
2022/12/11 03:34:36;;;;;;;24.15;21.90;;;;;;;-0.64;100.00;101033.41;5118942;29;20433;-91
2022/12/11 03:37:09;;;;;;;21.95;18.30;;;;;;;-1.03;100.00;100964.63;5119681;29;20404;-91
2022/12/11 03:39:47;;;;;;;22.27;20.08;;;;;;;-0.21;100.00;101110.63;5136495;29;20027;-91
2022/12/11 03:42:20;;;;;;;21.27;19.52;;;;;;;0.03;100.00;101133.47;5118901;29;20103;-91
2022/12/11 03:44:55;;;;;;;21.75;19.65;;;;;;;-0.70;100.00;101029.63;5136769;29;20027;-92
2022/12/11 03:47:28;;;;;;;24.27;21.85;;;;;;;0.02;100.00;101139.78;5119120;29;20405;-91
2022/12/11 03:50:03;;;;;;;21.38;19.10;;;;;;;-0.15;100.00;101104.59;5136956;29;20062;-91
2022/12/11 03:52:36;;;;;;;21.08;18.90;;;;;;;-1.44;100.00;100893.38;5135671;29;20075;-90
2022/12/11 03:55:08;;;;;;;21.83;19.58;;;;;;;0.02;100.00;101126.50;5119165;29;20024;-91
2022/12/11 03:57:38;;;;;;;21.33;19.58;;;;;;;-0.92;100.00;100990.72;5136166;29;20031;-91
2022/12/11 04:00:15;;;;;;;23.00;20.73;;;;;;;0.03;100.00;101128.97;5136066;29;20062;-90
2022/12/11 04:03:11;;;;;;;22.50;19.10;;;;;;;0.02;100.00;101127.31;5119024;29;20065;-91
2022/12/11 04:05:46;;;;;;;25.88;19.92;;;;;;;-1.77;100.00;100820.53;5136653;29;20059;-92
2022/12/11 04:08:19;;;;;;;21.90;19.55;;;;;;;-1.29;100.00;100912.00;5137398;28;20481;-90
2022/12/11 04:11:33;;;;;;;22.55;20.35;;;;;;;-1.64;100.00;100868.38;5123037;29;20023;-91
2022/12/11 04:13:43;;;;;;;18.63;16.98;;;;;;;0.04;100.00;101113.88;5139856;29;20027;-90
2022/12/11 04:16:13;;;;;;;21.95;19.92;;;;;;;0.04;100.00;101141.25;5123116;29;20034;-91
2022/12/11 04:24:27;;;;;;;22.95;20.77;;;;;;;-0.46;100.00;101070.22;5139777;29;20101;-91
2022/12/11 04:26:58;;;;;;;23.13;21.00;;;;;;;-1.40;100.00;100907.09;5122885;29;20039;-90
2022/12/11 04:29:28;;;;;;;23.85;21.58;;;;;;;-1.96;100.00;100774.16;5122646;29;20062;-91
2022/12/11 04:31:59;;;;;;;25.50;22.95;;;;;;;-1.41;100.00;100908.09;5122592;29;20106;-90
2022/12/11 04:34:29;;;;;;;28.13;23.50;;;;;;;-1.25;100.00;100878.03;5122602;29;20030;-91
2022/12/11 04:37:00;;;;;;;21.05;18.95;;;;;;;0.04;100.00;101088.16;5140044;29;20043;-91
2022/12/11 04:39:30;;;;;;;25.40;22.83;;;;;;;-1.30;100.00;100869.78;5140099;29;20031;-92
2022/12/11 04:42:01;;;;;;;27.25;24.30;;;;;;;0.03;100.00;101080.38;5122123;29;20031;-90
2022/12/11 04:44:32;;;;;;;28.42;25.27;;;;;;;-0.66;100.00;101008.91;5139453;29;20031;-91
2022/12/11 04:47:03;;;;;;;25.38;22.88;;;;;;;0.03;100.00;101081.19;5122641;29;20023;-91
2022/12/11 04:49:33;;;;;;;27.33;25.00;;;;;;;-1.33;100.00;100870.97;5122283;29;20049;-91
2022/12/11 04:52:04;;;;;;;25.13;22.75;;;;;;;-1.25;100.00;100889.44;5122368;29;20050;-91
2022/12/11 04:54:34;;;;;;;22.98;20.83;;;;;;;-0.09;100.00;101056.94;5139643;29;20059;-92
2022/12/11 04:57:05;;;;;;;27.95;25.45;;;;;;;0.04;100.00;101071.38;5122441;29;20026;-90
2022/12/11 04:59:36;;;;;;;30.23;24.33;;;;;;;-0.05;100.00;101097.22;5122679;29;20031;-90
2022/12/11 05:02:06;;;;;;;27.77;22.75;;;;;;;-0.88;100.00;100930.22;5139415;29;20027;-90
2022/12/11 05:04:37;;;;;;;26.50;24.00;;;;;;;-0.72;100.00;100960.03;5125434;29;20393;-89
2022/12/11 05:07:08;;;;;;;23.85;21.52;;;;;;;-0.99;100.00;100928.00;5136050;28;20067;-91
2022/12/11 05:09:38;;;;;;;26.88;24.15;;;;;;;0.04;100.00;101085.50;5138018;28;20039;-92
2022/12/11 05:12:09;;;;;;;25.70;23.38;;;;;;;-1.24;100.00;100885.81;5137233;28;20016;-90
2022/12/11 05:14:39;;;;;;;27.00;24.27;;;;;;;-0.24;100.00;101041.97;5154027;28;20148;-91
2022/12/11 05:17:10;;;;;;;25.98;22.88;;;;;;;-1.00;100.00;100926.34;5153682;28;20018;-91
2022/12/11 05:19:40;;;;;;;27.02;24.25;;;;;;;-1.15;100.00;100950.13;5144237;28;20433;-90
2022/12/11 05:22:10;;;;;;;23.70;21.40;;;;;;;-1.28;100.00;100929.53;5139007;29;20030;-90
2022/12/11 05:24:41;;;;;;;24.90;22.00;;;;;;;0.04;100.00;101113.88;5124547;28;20519;-90
2022/12/11 05:27:12;;;;;;;27.15;24.63;;;;;;;-0.76;100.00;100968.53;5140378;29;20023;-90
2022/12/11 05:29:42;;;;;;;27.42;21.27;;;;;;;-0.93;100.00;100944.00;5139788;29;20046;-91
2022/12/11 05:32:13;;;;;;;28.00;24.38;;;;;;;-1.45;100.00;100844.09;5122787;29;20034;-91
2022/12/11 05:34:44;;;;;;;23.95;21.50;;;;;;;0.04;100.00;101104.06;5138284;29;20019;-89
2022/12/11 05:37:14;;;;;;;24.77;22.20;;;;;;;0.05;100.00;101096.94;5122161;29;20035;-90
2022/12/11 05:39:44;;;;;;;23.48;21.05;;;;;;;-1.50;100.00;100833.22;5122181;29;20019;-90
2022/12/11 05:42:15;;;;;;;24.65;22.27;;;;;;;-0.86;100.00;100947.56;5121148;29;20034;-90
2022/12/11 05:44:45;;;;;;;26.15;23.83;;;;;;;-0.03;100.00;101089.91;5138780;29;20548;-90
2022/12/11 05:47:19;;;;;;;25.98;22.67;;;;;;;-0.68;100.00;100997.63;5122080;29;20033;-90
2022/12/11 05:49:49;;;;;;;25.00;22.35;;;;;;;-1.99;100.00;100761.28;5138330;29;20023;-89
2022/12/11 05:52:20;;;;;;;29.55;26.48;;;;;;;-1.62;100.00;100833.78;5138246;29;20026;-91
2022/12/11 05:54:50;;;;;;;26.20;23.67;;;;;;;-0.71;100.00;100992.69;5139014;29;20003;-91
2022/12/11 05:57:21;;;;;;;28.90;25.83;;;;;;;-1.33;100.00;100865.66;5138689;29;20027;-91
2022/12/11 05:59:51;;;;;;;24.38;21.20;;;;;;;-1.43;100.00;100876.50;5121305;29;20042;-90
2022/12/11 06:02:22;;;;;;;29.08;26.13;;;;;;;-1.39;100.00;100901.63;5138128;29;20048;-90
2022/12/11 06:04:52;;;;;;;22.50;20.20;;;;;;;-1.21;100.00;100949.03;5121038;29;20035;-90
2022/12/11 06:07:23;;;;;;;27.30;24.45;;;;;;;0.03;100.00;101099.78;5121117;29;20055;-88
2022/12/11 06:09:54;;;;;;;27.60;24.65;;;;;;;-0.62;100.00;100977.53;5139019;29;20146;-90
2022/12/11 06:12:24;;;;;;;26.58;23.55;;;;;;;0.03;100.00;101085.66;5121230;29;20031;-90
2022/12/11 06:14:55;;;;;;;27.20;22.90;;;;;;;-0.80;100.00;100970.72;5121016;29;20090;-90
2022/12/11 06:17:25;;;;;;;27.08;24.33;;;;;;;-1.31;100.00;100878.75;5137562;29;20034;-90
2022/12/11 06:19:56;;;;;;;29.33;23.08;;;;;;;-1.61;100.00;100856.63;5121421;29;20039;-89
2022/12/11 06:22:26;;;;;;;27.33;24.50;;;;;;;0.03;100.00;101065.25;5121807;29;20034;-90
2022/12/11 06:24:59;;;;;;;26.73;24.35;;;;;;;0.02;100.00;101084.84;5138545;29;20029;-89
2022/12/11 06:27:30;;;;;;;24.60;21.98;;;;;;;-1.74;100.00;100822.81;5139032;29;20042;-90
2022/12/11 06:30:00;;;;;;;26.02;23.33;;;;;;;-0.47;100.00;100983.69;5138516;28;20063;-90
2022/12/11 06:32:31;;;;;;;26.80;24.17;;;;;;;-1.98;100.00;100786.75;5137581;29;20034;-89
2022/12/11 06:35:01;;;;;;;29.40;25.02;;;;;;;-0.86;100.00;100925.53;5138023;29;20016;-88
2022/12/11 06:37:34;;;;;;;30.95;23.80;;;;;;;-0.37;100.00;101018.75;5121721;29;20039;-90
2022/12/11 06:40:07;;;;;;;28.80;25.85;;;;;;;-0.42;100.00;101002.53;5137698;29;20027;-90
2022/12/11 06:42:37;;;;;;;25.85;23.05;;;;;;;-0.02;100.00;101076.44;5137479;29;20055;-89
2022/12/11 06:45:08;;;;;;;25.85;23.50;;;;;;;-0.62;100.00;101023.44;5137255;29;20023;-89
2022/12/11 06:47:39;;;;;;;23.30;20.95;;;;;;;-0.27;100.00;101063.56;5135847;29;20034;-88
2022/12/11 06:50:09;;;;;;;31.60;28.35;;;;;;;-0.83;100.00;100959.63;5119661;29;20513;-89
2022/12/11 06:52:40;;;;;;;28.88;25.83;;;;;;;-1.12;100.00;100921.47;5135748;29;20058;-88
2022/12/11 06:55:10;;;;;;;27.92;25.08;;;;;;;-0.69;100.00;100988.84;5135673;29;20027;-89
2022/12/11 06:57:40;;;;;;;30.23;25.35;;;;;;;-2.11;100.00;100766.16;5119992;29;20035;-89
2022/12/11 07:00:11;;;;;;;28.67;25.55;;;;;;;-0.09;100.00;101072.88;5136700;29;20023;-90
2022/12/11 07:02:42;;;;;;;29.85;25.88;;;;;;;-0.17;100.00;101078.25;5136624;29;20023;-90
2022/12/11 07:05:12;;;;;;;30.70;24.88;;;;;;;-1.84;100.00;100798.41;5119344;29;20046;-88
2022/12/11 07:07:43;;;;;;;31.65;28.45;;;;;;;-0.92;100.00;100977.47;5119994;29;20034;-89
2022/12/11 07:10:13;;;;;;;28.95;26.33;;;;;;;-0.13;100.00;101086.66;5120059;29;20069;-89
2022/12/11 07:12:44;;;;;;;35.40;26.23;;;;;;;-0.53;100.00;101029.47;5119268;29;20066;-89
2022/12/11 07:15:14;;;;;;;28.30;24.10;;;;;;;-0.17;100.00;101082.72;5136484;29;20035;-90
2022/12/11 07:17:45;;;;;;;32.67;26.25;;;;;;;-0.69;100.00;101017.19;5119947;29;20020;-90
2022/12/11 07:20:16;;;;;;;32.10;26.45;;;;;;;-0.70;100.00;101016.38;5120468;29;20163;-90
2022/12/11 07:22:46;;;;;;;32.53;26.88;;;;;;;-1.97;100.00;100824.59;5137009;29;20019;-91
2022/12/11 07:25:17;;;;;;;30.00;24.42;;;;;;;-1.51;100.00;100879.22;5152801;28;20086;-91
2022/12/11 07:27:47;;;;;;;30.27;27.15;;;;;;;-1.93;100.00;100845.25;5136603;28;20469;-91
2022/12/11 07:30:20;;;;;;;34.50;27.55;;;;;;;-1.12;100.00;100961.19;5136760;28;20030;-91
2022/12/11 07:32:51;;;;;;;30.10;26.90;;;;;;;-0.24;100.00;101119.75;5135828;28;20028;-90
2022/12/11 07:35:21;;;;;;;29.80;25.83;;;;;;;-0.33;100.00;101131.47;5120203;29;20090;-88
2022/12/11 07:37:52;;;;;;;32.30;28.92;;;;;;;-2.24;100.00;100813.53;5138404;28;20062;-90
2022/12/11 07:40:22;;;;;;;32.67;26.67;;;;;;;-1.96;100.00;100821.78;5138496;29;20038;-88
2022/12/11 07:43:13;;;;;;;34.28;27.30;;;;;;;-0.98;100.00;100985.31;5199981;23;20034;-92
2022/12/11 07:48:29;;;;;;;45.05;40.08;;;;;;;-0.25;100.00;101102.19;5143411;28;20051;-68
2022/12/11 07:51:16;;;;;;;33.63;29.90;;;;;;;-0.28;100.00;101101.72;5127048;28;20297;-69
2022/12/11 07:53:48;;;;;;;28.50;24.33;;;;;;;-0.42;100.00;101076.81;5122993;28;20085;-69
2022/12/11 07:56:19;;;;;;;30.65;27.98;;;;;;;-0.31;100.00;101104.75;5129895;28;20532;-67
2022/12/11 07:58:49;;;;;;;32.25;28.20;;;;;;;-0.33;100.00;101094.31;5130287;28;20109;-68
2022/12/11 08:01:22;;;;;;;31.98;26.83;;;;;;;-0.34;100.00;101108.59;5146297;28;20049;-68
2022/12/11 08:03:54;;;;;;;28.98;26.08;;;;;;;-0.39;100.00;101098.50;5145931;28;20031;-68
2022/12/11 08:06:28;;;;;;;31.13;27.73;;;;;;;-0.35;100.00;101098.97;5147306;28;20026;-69
2022/12/11 08:08:59;;;;;;;31.27;27.13;;;;;;;-0.26;100.00;101105.03;5147280;28;20030;-68
2022/12/11 08:11:30;;;;;;;31.33;27.35;;;;;;;-0.35;100.00;101091.03;5147448;28;20407;-69
2022/12/11 08:14:01;;;;;;;30.58;26.60;;;;;;;-0.22;100.00;101104.50;5129828;28;20027;-68
2022/12/11 08:16:32;;;;;;;30.80;27.67;;;;;;;-0.19;100.00;101100.66;5129948;28;20031;-68
2022/12/11 08:19:02;;;;;;;34.65;29.33;;;;;;;-0.22;100.00;101101.84;5147411;28;20061;-67
2022/12/11 08:21:33;;;;;;;38.90;28.40;;;;;;;-0.44;100.00;101076.16;5147375;28;20074;-69
2022/12/11 08:24:03;;;;;;;29.35;26.77;;;;;;;-0.19;100.00;101109.44;5146851;28;20038;-70
2022/12/11 08:26:34;;;;;;;31.13;26.77;;;;;;;-0.19;100.00;101100.66;5150193;28;20050;-69
2022/12/11 08:29:04;;;;;;;29.05;26.52;;;;;;;-0.23;100.00;101088.75;5150482;28;20054;-69
2022/12/11 08:31:34;;;;;;;30.85;27.95;;;;;;;-0.16;100.00;101095.00;5150341;28;20030;-67
2022/12/11 08:34:05;;;;;;;35.95;27.42;;;;;;;-0.16;100.00;101100.31;5149951;28;20463;-69
2022/12/11 08:36:36;;;;;;;34.25;30.77;;;;;;;-0.16;100.00;101095.81;5130412;28;20034;-67
2022/12/11 08:39:06;;;;;;;34.60;31.05;;;;;;;-0.09;100.00;101096.75;5147689;28;20106;-67
2022/12/11 08:41:37;;;;;;;33.17;30.17;;;;;;;-0.06;100.00;101092.91;5147092;28;20114;-68
2022/12/11 08:44:11;;;;;;;29.92;27.08;;;;;;;-0.11;100.00;101082.84;5146031;28;20023;-67
2022/12/11 08:46:41;;;;;;;31.67;28.77;;;;;;;-0.08;100.00;101097.56;5146938;28;20109;-70
2022/12/11 08:49:12;;;;;;;31.88;28.42;;;;;;;0.00;100.00;101093.00;5147378;28;20468;-70
2022/12/11 08:51:42;;;;;;;29.88;26.73;;;;;;;0.04;100.00;101100.59;5147284;28;20023;-69
2022/12/11 08:54:12;;;;;;;30.67;27.45;;;;;;;0.04;100.00;101097.94;5146498;28;20023;-68
2022/12/11 08:56:43;;;;;;;26.10;23.45;;;;;;;-0.10;100.00;101067.72;5146816;28;20281;-68
2022/12/11 08:59:13;;;;;;;29.73;26.63;;;;;;;-0.02;100.00;101079.09;5147299;28;20415;-68
2022/12/11 09:01:43;;;;;;;35.40;28.02;;;;;;;0.05;100.00;101083.66;5146707;28;20523;-70
2022/12/11 09:04:14;;;;;;;36.03;26.75;;;;;;;0.10;100.00;101089.25;5145954;28;20023;-66
2022/12/11 09:06:44;;;;;;;30.88;27.42;;;;;;;0.17;100.00;101098.16;5128982;28;20125;-68
2022/12/11 09:09:15;;;;;;;36.55;28.23;;;;;;;0.12;100.00;101085.41;5129006;28;20166;-68
2022/12/11 09:11:45;;;;;;;32.35;29.02;;;;;;;0.15;100.00;101082.41;5146235;28;20033;-68
2022/12/11 09:14:16;;;;;;;35.65;29.15;;;;;;;0.16;100.00;101081.41;5146125;28;20027;-69
2022/12/11 09:16:46;;;;;;;33.80;30.55;;;;;;;0.19;100.00;101080.22;5146282;28;20034;-69
2022/12/11 09:19:16;;;;;;;38.20;31.55;;;;;;;0.26;100.00;101083.78;5146201;28;20031;-68
2022/12/11 09:21:47;;;;;;;38.13;27.95;;;;;;;0.34;100.00;101081.84;5128220;28;20479;-66
2022/12/11 09:24:18;;;;;;;34.83;27.40;;;;;;;-0.01;100.00;101017.03;5146000;28;20098;-68
2022/12/11 09:26:48;;;;;;;32.55;29.13;;;;;;;0.41;100.00;101079.28;5145827;28;20416;-70
2022/12/11 09:29:18;;;;;;;39.45;31.90;;;;;;;0.20;100.00;101040.19;5145786;28;20030;-68
2022/12/11 09:31:49;;;;;;;32.65;29.27;;;;;;;0.48;100.00;101082.84;5145520;28;20042;-68
2022/12/11 09:34:21;;;;;;;31.65;28.25;;;;;;;0.49;100.00;101087.16;5145489;28;20015;-67
2022/12/11 09:36:51;;;;;;;34.55;27.45;;;;;;;0.42;100.00;101082.75;5145578;28;20026;-68
2022/12/11 09:39:21;;;;;;;30.83;26.92;;;;;;;0.43;100.00;101082.56;5145763;28;20018;-70
2022/12/11 09:42:12;;;;;;;33.63;26.58;;;;;;;0.49;100.00;101081.03;5128244;28;20106;-65
2022/12/11 09:44:49;;;;;;;33.22;29.55;;;;;;;0.48;100.00;101082.84;5128121;28;20411;-67
2022/12/11 09:47:19;;;;;;;31.48;28.35;;;;;;;0.55;100.00;101080.28;5145787;28;20542;-68
2022/12/11 09:49:57;;;;;;;28.52;25.25;;;;;;;0.52;100.00;101049.59;5145690;28;20121;-68
2022/12/11 09:52:36;;;;;;;31.33;27.60;;;;;;;0.76;100.00;101071.53;5145215;28;20106;-68
2022/12/11 09:55:31;;;;;;;30.30;27.00;;;;;;;0.86;100.00;101067.59;5145758;28;20031;-67
2022/12/11 09:58:10;;;;;;;33.88;30.67;;;;;;;0.91;100.00;101065.16;5145227;28;20098;-67
2022/12/11 10:00:47;;;;;;;29.37;26.40;;;;;;;0.91;100.00;101053.72;5145339;28;20109;-66
2022/12/11 10:03:51;;;;;;;32.28;29.02;;;;;;;0.89;100.00;101059.22;5144388;28;20361;-67
2022/12/11 10:06:27;;;;;;;31.77;28.70;;;;;;;0.92;100.00;101044.72;5143998;28;20487;-67
2022/12/11 10:09:15;;;;;;;29.33;26.20;;;;;;;0.89;100.00;101050.41;5145103;28;20027;-66
2022/12/11 10:12:01;;;;;;;39.80;28.50;;;;;;;0.92;100.00;101068.66;5144633;28;20022;-67
2022/12/11 10:14:54;;;;;;;30.48;27.58;;;;;;;1.03;100.00;101057.53;5144843;28;20027;-67
2022/12/11 10:17:29;;;;;;;28.75;25.55;;;;;;;1.15;100.00;101065.84;5144922;28;20019;-68
2022/12/11 10:20:17;;;;;;;28.05;25.20;;;;;;;0.98;100.00;101036.81;5144575;28;20034;-67
2022/12/11 10:22:49;;;;;;;24.50;22.13;;;;;;;1.16;100.00;101062.97;5126696;28;20022;-68
2022/12/11 10:25:30;;;;;;;27.90;25.08;;;;;;;1.17;100.00;101053.97;5144577;28;20034;-67
2022/12/11 10:28:15;;;;;;;30.85;26.80;;;;;;;1.34;100.00;101060.72;5144416;28;20119;-66
2022/12/11 10:30:54;;;;;;;26.65;24.08;;;;;;;1.35;100.00;101056.22;5144412;28;20109;-67
2022/12/11 10:33:55;;;;;;;26.02;23.38;;;;;;;1.28;100.00;101063.28;5144003;28;20483;-67
2022/12/11 10:36:44;;;;;;;25.63;23.17;;;;;;;1.18;100.00;101063.59;5144748;28;20030;-68
2022/12/11 10:39:20;;;;;;;28.95;24.90;;;;;;;1.11;100.00;101062.75;5127183;28;20208;-69
2022/12/11 10:41:52;;;;;;;23.73;21.15;;;;;;;1.01;100.00;101057.72;5144452;28;20073;-68
2022/12/11 10:44:28;;;;;;;26.10;23.30;;;;;;;1.00;100.00;101057.91;5144634;28;20442;-67
2022/12/11 10:47:12;;;;;;;24.10;21.75;;;;;;;0.97;100.00;101053.78;5144299;28;20026;-67
2022/12/11 10:49:52;;;;;;;23.90;21.60;;;;;;;0.91;100.00;101059.03;5144671;28;20414;-70
2022/12/11 10:52:26;;;;;;;23.60;21.73;;;;;;;0.86;100.00;101043.66;5144184;28;20411;-70
2022/12/11 10:55:06;;;;;;;24.85;21.33;;;;;;;0.84;100.00;101043.03;5144592;28;20050;-67
2022/12/11 10:57:38;;;;;;;25.85;23.25;;;;;;;0.84;100.00;101032.38;5144431;28;20040;-68
2022/12/11 11:00:30;;;;;;;24.60;22.02;;;;;;;0.88;100.00;101028.31;5144666;28;20106;-68
2022/12/11 11:03:01;;;;;;;24.42;22.02;;;;;;;0.85;100.00;101027.91;5143650;28;20034;-68
2022/12/11 11:05:36;;;;;;;22.25;20.08;;;;;;;0.91;100.00;101027.13;5144548;28;20309;-68
2022/12/11 11:08:18;;;;;;;22.25;20.02;;;;;;;0.90;100.00;101020.16;5127083;28;20073;-67
2022/12/11 11:10:57;;;;;;;26.77;24.40;;;;;;;1.02;100.00;101031.94;5144315;28;20122;-66
2022/12/11 11:13:30;;;;;;;22.73;20.85;;;;;;;1.04;100.00;101031.75;5126327;28;20034;-70
2022/12/11 11:16:12;;;;;;;22.83;20.80;;;;;;;1.00;100.00;101031.31;5145548;28;20092;-68
2022/12/11 11:18:53;;;;;;;22.00;19.83;;;;;;;0.96;100.00;101032.69;5143925;28;20073;-69
2022/12/11 11:21:25;;;;;;;25.88;23.40;;;;;;;0.96;100.00;101030.88;5126838;28;20114;-67
2022/12/11 11:23:56;;;;;;;22.85;20.70;;;;;;;0.92;100.00;101042.06;5143331;28;20038;-68
2022/12/11 11:26:31;;;;;;;23.40;21.02;;;;;;;0.93;100.00;101047.19;5144274;28;20062;-67
2022/12/11 11:29:02;;;;;;;23.60;21.25;;;;;;;0.92;100.00;101039.41;5143991;28;20375;-66
2022/12/11 11:31:34;;;;;;;24.08;21.55;;;;;;;0.88;100.00;101035.47;5144121;28;20023;-68
2022/12/11 11:34:07;;;;;;;22.88;20.17;;;;;;;0.89;100.00;101045.09;5143306;28;20023;-68
2022/12/11 11:36:37;;;;;;;22.67;20.73;;;;;;;0.91;100.00;101053.72;5143684;28;20383;-66
2022/12/11 11:39:30;;;;;;;23.15;20.88;;;;;;;0.86;100.00;101045.50;5143911;28;20105;-66
2022/12/11 11:42:19;;;;;;;22.75;20.77;;;;;;;0.79;100.00;101040.09;5143466;28;20175;-67
2022/12/11 11:45:03;;;;;;;23.42;21.10;;;;;;;0.77;100.00;101047.44;5143789;28;20030;-67
2022/12/11 11:47:40;;;;;;;23.58;21.20;;;;;;;0.80;100.00;101041.75;5143531;28;20085;-67
2022/12/11 11:50:19;;;;;;;22.92;20.77;;;;;;;0.77;100.00;101041.28;5143823;28;20022;-67
2022/12/11 11:53:09;;;;;;;24.65;22.45;;;;;;;0.70;100.00;101041.22;5143388;28;20034;-68